This is the latest recevied weather packets stored in our database for station/object FW1079. If no packets are shown the sender has not sent any weather packets the latest 10 day(s).
| Time | Temp. | Humidity | Pressure | Rain* | Wind** | Luminosity | Snow |
|---|---|---|---|---|---|---|---|
| 1777364649 | 22.22° C | 55% | 1016 hPa | 0 mm | - | - | - |
| 1777362849 | 21.11° C | 55% | 1016 hPa | 0 mm | - | - | - |
| 1777362552 | 20.56° C | 54% | 1016 hPa | 0 mm | - | - | - |
| 1777362249 | 20.56° C | 52% | 1016 hPa | 0 mm | - | - | - |
| 1777361952 | 20.56° C | 54% | 1016 hPa | 0 mm | - | - | - |
| 1777359549 | 18.33° C | 65% | 1016 hPa | 0 mm | - | - | - |
| 1777357150 | 15.56° C | 71% | 1016 hPa | 0 mm | - | - | - |
| 1777356849 | 15.56° C | 70% | 1016 hPa | 0 mm | - | - | - |
| 1777355949 | 15° C | 73% | 1016 hPa | 0 mm | - | - | - |
| 1777355349 | 14.44° C | 76% | 1016 hPa | 0 mm | - | - | - |
| 1777354750 | 13.89° C | 77% | 1016 hPa | 0 mm | - | - | - |
| 1777354449 | 13.33° C | 78% | 1016 hPa | 0 mm | - | - | - |
| 1777354152 | 13.33° C | 79% | 1016 hPa | 0 mm | - | - | - |
| 1777352049 | 12.78° C | 83% | 1016 hPa | 0 mm | - | - | - |
| 1777348449 | 11.67° C | 82% | 1016 hPa | 0 mm | - | - | - |
| 1777346649 | 12.78° C | 80% | 1016 hPa | 0 mm | - | - | - |
| 1777346353 | 12.78° C | 80% | 1016 hPa | 0 mm | - | - | - |
| 1777346049 | 12.78° C | 81% | 1016 hPa | 0 mm | - | - | - |
| 1777344252 | 12.22° C | 81% | 1016 hPa | 0 mm | - | - | - |
| 1777343349 | 12.78° C | 81% | 1016 hPa | 0 mm | - | - | - |
| 1777343049 | 12.22° C | 81% | 1016 hPa | 0 mm | - | - | - |
| 1777342749 | 12.78° C | 81% | 1016 hPa | 0 mm | - | - | - |
| 1777341549 | 12.22° C | 81% | 1016 hPa | 0 mm | - | - | - |
| 1777340352 | 12.22° C | 80% | 1016 hPa | 0 mm | - | - | - |
| 1777340049 | 12.78° C | 81% | 1016 hPa | 0 mm | - | - | - |
* Rain latest hour (hover to see other rain measurements)
** Current wind speed in m/s (hover to see current wind gust speed)